Time;durP1;ratioP1;P1;durP2;ratioP2;P2;SDS_P1;SDS_P2;PMS_P1;PMS_P2;Temp;Humidity;BMP_temperature;BMP_pressure;BME280_temperature;BME280_humidity;BME280_pressure;Samples;Min_cycle;Max_cycle;Signal;HPM_P1;HPM_P2
2022/04/01 00:02:11;;;;;;;299.15;273.10;;;;;;;18.34;32.54;91470.50;5056674;28;20044;-68
2022/04/01 00:04:43;;;;;;;315.00;287.55;;;;;;;18.34;32.62;91470.50;5051534;28;20049;-68
2022/04/01 00:07:15;;;;;;;296.88;271.10;;;;;;;18.34;32.88;91473.22;5059953;28;20115;-68
2022/04/01 00:09:41;;;;;;;296.00;270.27;;;;;;;18.33;32.80;91472.47;5048954;28;20051;-68
2022/04/01 00:12:08;;;;;;;305.55;279.08;;;;;;;18.34;32.99;91473.94;5045215;28;20759;-69
2022/04/01 00:14:34;;;;;;;315.17;287.23;;;;;;;18.34;33.00;91468.53;5043554;28;20045;-68
2022/04/01 00:17:00;;;;;;;297.85;272.50;;;;;;;18.33;32.98;91472.47;5046773;28;20044;-68
2022/04/01 00:19:26;;;;;;;301.00;275.77;;;;;;;18.35;32.88;91474.69;5050687;28;20070;-68
2022/04/01 00:21:52;;;;;;;303.52;277.80;;;;;;;18.33;32.60;91469.78;5059794;28;20059;-68
2022/04/01 00:24:18;;;;;;;304.17;278.42;;;;;;;18.33;32.98;91464.38;5053511;28;20127;-68
2022/04/01 00:26:45;;;;;;;299.33;273.48;;;;;;;18.33;32.76;91463.63;5053457;28;20053;-68
2022/04/01 00:29:15;;;;;;;300.95;274.73;;;;;;;18.33;32.74;91464.38;5048305;28;20045;-68
2022/04/01 00:31:44;;;;;;;295.60;270.13;;;;;;;18.33;32.78;91460.94;5058703;28;20045;-68
2022/04/01 00:34:17;;;;;;;301.13;275.40;;;;;;;18.33;32.51;91458.97;5046386;28;20045;-68
2022/04/01 00:36:44;;;;;;;298.25;272.58;;;;;;;18.33;32.64;91456.25;5057393;28;20791;-68
2022/04/01 00:39:11;;;;;;;305.48;279.13;;;;;;;18.33;32.80;91460.94;5046212;28;20037;-68
2022/04/01 00:41:37;;;;;;;291.17;266.08;;;;;;;18.33;32.76;91456.25;5050002;28;20118;-68
2022/04/01 00:44:15;;;;;;;302.80;277.38;;;;;;;18.32;32.82;91454.06;5064305;28;20489;-68
2022/04/01 00:46:45;;;;;;;295.00;269.17;;;;;;;18.33;32.69;91461.66;5042281;28;20056;-68
2022/04/01 00:49:12;;;;;;;291.13;265.48;;;;;;;18.33;32.81;91456.25;5045938;28;20111;-67
2022/04/01 00:51:41;;;;;;;290.77;265.50;;;;;;;18.33;32.69;91455.53;5045383;28;20144;-68
2022/04/01 00:54:08;;;;;;;288.88;263.67;;;;;;;18.32;32.79;91449.38;5060740;28;20051;-67
2022/04/01 00:56:34;;;;;;;297.25;271.33;;;;;;;18.32;32.74;91451.34;5044654;28;20059;-68
2022/04/01 00:59:02;;;;;;;292.80;267.33;;;;;;;18.32;32.76;91448.66;5054131;28;20045;-67
2022/04/01 01:01:30;;;;;;;288.63;263.23;;;;;;;18.31;32.74;91449.91;5072031;28;20049;-68
2022/04/01 01:04:00;;;;;;;299.15;273.38;;;;;;;18.30;32.73;91446.47;5046920;28;20068;-67
2022/04/01 01:06:26;;;;;;;303.08;277.13;;;;;;;18.31;32.73;91444.50;5048714;28;20250;-67
2022/04/01 01:08:53;;;;;;;299.00;273.08;;;;;;;18.29;32.70;91442.28;5056434;28;20068;-68
2022/04/01 01:11:18;;;;;;;295.80;270.27;;;;;;;18.28;32.66;91437.41;5052789;28;20049;-67
2022/04/01 01:13:45;;;;;;;304.55;278.15;;;;;;;18.28;32.75;91440.84;5050028;28;20103;-67
2022/04/01 01:16:11;;;;;;;293.80;268.13;;;;;;;18.26;32.57;91432.50;5048061;28;20044;-68
2022/04/01 01:18:36;;;;;;;298.33;272.73;;;;;;;18.26;32.68;91437.91;5052122;28;20080;-67
2022/04/01 01:21:02;;;;;;;294.77;268.95;;;;;;;18.26;32.98;91437.91;5050919;28;20045;-67
2022/04/01 01:23:31;;;;;;;299.60;273.92;;;;;;;18.26;32.59;91434.47;5048107;28;20123;-67
2022/04/01 01:25:57;;;;;;;301.52;275.33;;;;;;;18.27;32.74;91430.53;5047259;28;20044;-68
2022/04/01 01:28:23;;;;;;;297.25;271.48;;;;;;;18.25;32.73;91431.06;5054703;28;20525;-67
2022/04/01 01:30:49;;;;;;;296.40;270.73;;;;;;;18.26;32.75;91435.22;5050505;28;20497;-68
2022/04/01 01:33:15;;;;;;;293.50;268.10;;;;;;;18.27;32.71;91425.84;5050311;28;20103;-68
2022/04/01 01:35:44;;;;;;;305.08;278.98;;;;;;;18.27;32.72;91428.56;5053283;28;20033;-67
2022/04/01 01:38:10;;;;;;;299.70;273.70;;;;;;;18.27;32.58;91425.13;5047874;28;20037;-68
2022/04/01 01:40:36;;;;;;;301.02;275.27;;;;;;;18.28;32.71;91435.44;5052993;28;20053;-69
2022/04/01 01:43:02;;;;;;;305.85;279.35;;;;;;;18.28;32.69;91421.91;5045557;28;20049;-68
2022/04/01 01:45:30;;;;;;;292.35;266.80;;;;;;;18.27;32.60;91428.56;5048552;28;20528;-68
2022/04/01 01:47:56;;;;;;;316.13;288.27;;;;;;;18.26;32.86;91423.66;5056734;28;20045;-68
2022/04/01 01:55:50;;;;;;;299.45;273.33;;;;;;;18.27;32.75;91433.25;5045808;28;20044;-68
2022/04/01 01:58:15;;;;;;;301.40;275.55;;;;;;;18.28;32.55;91423.88;5044563;28;20037;-68
2022/04/01 02:00:42;;;;;;;304.02;277.80;;;;;;;18.25;32.80;91424.91;5052500;28;20049;-68
2022/04/01 02:03:09;;;;;;;298.73;273.02;;;;;;;18.25;32.59;91438.44;5046847;28;20291;-68
2022/04/01 02:05:34;;;;;;;304.80;278.67;;;;;;;18.26;32.75;91431.78;5046298;28;20556;-69
2022/04/01 02:08:01;;;;;;;297.00;270.92;;;;;;;18.22;32.74;91437.50;5048177;28;20048;-69
2022/04/01 02:10:26;;;;;;;306.35;280.27;;;;;;;18.27;32.69;91438.66;5050611;28;20045;-67
2022/04/01 02:12:52;;;;;;;291.02;264.88;;;;;;;18.28;32.80;91438.13;5050338;28;20105;-67
2022/04/01 02:15:18;;;;;;;297.02;270.75;;;;;;;18.26;32.73;91437.19;5043308;28;20528;-67
2022/04/01 02:17:44;;;;;;;299.50;272.98;;;;;;;18.25;32.62;91443.84;5045619;28;20506;-67
2022/04/01 02:20:10;;;;;;;300.25;273.88;;;;;;;18.23;32.80;91444.38;5050062;28;20041;-68
2022/04/01 02:22:39;;;;;;;291.50;265.77;;;;;;;18.22;32.65;91437.50;5052224;28;20052;-68
2022/04/01 02:25:07;;;;;;;301.05;274.83;;;;;;;18.23;32.78;91441.66;5052493;28;20132;-68
2022/04/01 02:27:34;;;;;;;296.98;270.83;;;;;;;18.22;32.53;91437.50;5061094;28;20056;-67
2022/04/01 02:30:01;;;;;;;296.70;270.67;;;;;;;18.21;32.71;91438.75;5057102;28;20491;-67
2022/04/01 02:32:27;;;;;;;315.23;287.48;;;;;;;18.20;32.71;91433.88;5054184;28;20045;-67
2022/04/01 02:34:53;;;;;;;294.92;268.80;;;;;;;18.20;32.72;91442.69;5046304;28;20053;-67
2022/04/01 02:37:25;;;;;;;303.45;276.98;;;;;;;18.19;33.04;91443.22;5051180;28;20431;-67
2022/04/01 02:39:50;;;;;;;315.98;287.90;;;;;;;18.19;32.72;91438.56;5060639;28;20465;-67
2022/04/01 02:42:16;;;;;;;300.30;274.23;;;;;;;18.18;32.59;91439.81;5049896;28;20072;-67
2022/04/01 02:44:41;;;;;;;303.08;276.08;;;;;;;18.19;32.57;91440.53;5045921;28;20053;-67
2022/04/01 02:47:08;;;;;;;300.25;273.90;;;;;;;18.19;32.66;91435.84;5051326;28;20409;-67
2022/04/01 02:49:34;;;;;;;302.85;276.55;;;;;;;18.19;32.86;91448.66;5056185;28;20094;-67
2022/04/01 02:52:00;;;;;;;317.55;290.17;;;;;;;18.19;32.67;91441.25;5053269;28;20424;-67
2022/04/01 02:54:25;;;;;;;311.42;284.05;;;;;;;18.17;32.66;91443.75;5059071;28;20080;-67
2022/04/01 02:56:51;;;;;;;304.17;277.27;;;;;;;18.17;32.54;91448.44;5051294;28;20108;-68
2022/04/01 02:59:16;;;;;;;305.05;278.67;;;;;;;18.17;32.57;91446.47;5051495;28;20106;-68
2022/04/01 03:01:42;;;;;;;302.00;275.73;;;;;;;18.18;32.69;91442.50;5046454;28;20055;-68
2022/04/01 03:04:10;;;;;;;307.92;281.17;;;;;;;18.17;32.74;91440.31;5047595;28;20044;-70
2022/04/01 03:06:39;;;;;;;295.27;269.55;;;;;;;18.17;32.70;91451.88;5049171;28;20053;-68
2022/04/01 03:09:06;;;;;;;295.73;269.77;;;;;;;18.17;32.68;91443.03;5050601;28;20053;-68
2022/04/01 03:11:32;;;;;;;304.35;277.50;;;;;;;18.16;32.57;91444.25;5049250;28;20056;-68
2022/04/01 03:13:58;;;;;;;311.25;284.38;;;;;;;18.15;32.56;91445.50;5049641;28;20036;-68
2022/04/01 03:16:24;;;;;;;306.10;279.55;;;;;;;18.17;32.32;91445.72;5047975;28;20059;-68
2022/04/01 03:18:50;;;;;;;291.50;265.58;;;;;;;18.17;32.51;91446.47;5057974;28;20094;-68
2022/04/01 03:21:16;;;;;;;291.67;266.10;;;;;;;18.16;32.71;91450.41;5050790;28;20044;-68
2022/04/01 03:23:46;;;;;;;293.05;267.10;;;;;;;18.14;32.73;91444.78;5045802;28;20045;-68
2022/04/01 03:26:13;;;;;;;;;;;;;;;18.15;32.61;91448.22;5049590;28;20044;-68
2022/04/01 03:28:39;;;;;;;277.02;251.80;;;;;;;18.16;32.71;91449.69;5046567;28;19998;-68
2022/04/01 03:31:05;;;;;;;284.42;259.05;;;;;;;18.14;32.61;91452.91;5052115;28;20068;-67
2022/04/01 03:33:32;;;;;;;292.63;267.02;;;;;;;18.15;32.51;91450.91;5054783;28;20039;-68
2022/04/01 03:35:57;;;;;;;300.38;274.35;;;;;;;18.16;32.44;91452.38;5053310;28;20044;-68
2022/04/01 03:38:23;;;;;;;288.80;263.27;;;;;;;18.14;32.50;91454.88;5047689;28;20117;-68
2022/04/01 03:40:51;;;;;;;292.10;266.20;;;;;;;18.15;32.69;91451.66;5053124;28;20060;-68
2022/04/01 03:43:17;;;;;;;283.70;258.55;;;;;;;18.14;32.41;91446.75;5045109;28;20068;-68
2022/04/01 03:45:46;;;;;;;296.35;270.52;;;;;;;18.15;32.54;91456.34;5051861;28;20525;-68
2022/04/01 03:48:26;;;;;;;293.58;268.00;;;;;;;18.15;32.74;91445.50;5058636;28;20059;-68
2022/04/01 03:50:55;;;;;;;278.48;253.63;;;;;;;18.15;32.52;91442.81;5054829;28;20032;-68
2022/04/01 03:53:28;;;;;;;295.70;269.27;;;;;;;18.16;32.58;91445.00;5049931;28;20043;-68
2022/04/01 03:55:59;;;;;;;285.90;260.48;;;;;;;18.17;32.53;91449.16;5048931;28;20045;-68
2022/04/01 03:58:31;;;;;;;301.35;275.27;;;;;;;18.20;32.67;91450.09;5044829;28;20075;-68
2022/04/01 04:01:03;;;;;;;294.52;268.63;;;;;;;18.19;32.44;91446.66;5042939;28;20040;-68
2022/04/01 04:03:31;;;;;;;297.13;271.38;;;;;;;18.22;32.81;91456.44;5045818;28;20118;-68
2022/04/01 04:05:58;;;;;;;294.52;268.85;;;;;;;18.26;32.58;91458.84;5052239;28;20036;-68
2022/04/01 04:08:24;;;;;;;292.25;267.00;;;;;;;18.29;32.56;91455.09;5064425;28;20217;-68
2022/04/01 04:10:51;;;;;;;301.90;275.55;;;;;;;18.30;32.55;91459.25;5050604;28;20485;-68
2022/04/01 04:13:19;;;;;;;291.02;265.70;;;;;;;18.32;32.49;91467.59;5049863;28;20042;-68
2022/04/01 04:16:09;;;;;;;296.15;270.83;;;;;;;18.36;32.69;91457.94;5059100;28;20037;-68
2022/04/01 04:18:51;;;;;;;301.08;275.45;;;;;;;18.41;32.69;91467.19;5052154;28;20045;-68
2022/04/01 04:21:36;;;;;;;298.27;272.23;;;;;;;18.41;32.60;91464.50;5051434;28;20051;-68
2022/04/01 04:24:02;;;;;;;295.27;269.67;;;;;;;18.45;32.45;91467.63;5050984;28;20040;-67
2022/04/01 04:26:38;;;;;;;315.95;289.17;;;;;;;18.48;32.68;91473.97;5055262;28;20041;-68
2022/04/01 04:29:16;;;;;;;308.63;282.73;;;;;;;18.52;32.53;91469.72;5053071;28;20041;-68
2022/04/01 04:32:02;;;;;;;306.67;280.88;;;;;;;18.54;32.65;91471.91;5055058;28;20155;-68
2022/04/01 04:34:45;;;;;;;315.27;288.45;;;;;;;18.53;32.53;91482.00;5047903;28;20110;-68
2022/04/01 04:37:14;;;;;;;312.73;286.55;;;;;;;18.55;32.57;91481.50;5050782;28;20036;-68
2022/04/01 04:39:40;;;;;;;305.05;279.45;;;;;;;18.57;32.84;91481.69;5061086;28;20127;-68
2022/04/01 04:42:09;;;;;;;320.15;293.42;;;;;;;18.59;32.45;91481.91;5075251;28;20036;-67
2022/04/01 04:44:36;;;;;;;327.60;299.88;;;;;;;18.61;32.31;91477.47;5046330;28;20041;-67
2022/04/01 04:47:07;;;;;;;313.23;287.05;;;;;;;18.63;32.35;91485.81;5053208;28;20058;-68
2022/04/01 04:49:35;;;;;;;319.75;293.55;;;;;;;18.66;32.46;91481.31;5050159;28;20049;-68
2022/04/01 04:52:02;;;;;;;316.30;290.20;;;;;;;18.67;32.43;91482.78;5045053;28;20044;-67
2022/04/01 04:54:27;;;;;;;321.05;294.27;;;;;;;18.68;32.41;91490.38;5049304;28;20612;-68
2022/04/01 04:56:54;;;;;;;317.58;291.05;;;;;;;18.69;32.40;91494.56;5059193;28;20044;-68
2022/04/01 04:59:21;;;;;;;304.52;278.95;;;;;;;18.67;32.23;91496.31;5054704;28;20037;-68
2022/04/01 05:02:09;;;;;;;324.63;298.13;;;;;;;18.68;32.21;91492.38;5045790;28;20041;-68
2022/04/01 05:04:53;;;;;;;327.52;299.83;;;;;;;18.68;32.14;91498.50;5052894;28;20040;-67
2022/04/01 05:07:26;;;;;;;307.35;281.98;;;;;;;18.65;32.13;91502.25;5051946;28;20049;-68
2022/04/01 05:09:51;;;;;;;314.10;287.83;;;;;;;18.66;32.17;91501.00;5048999;28;20480;-67
2022/04/01 05:12:24;;;;;;;319.15;292.60;;;;;;;18.65;32.17;91501.53;5056874;28;20120;-68
2022/04/01 05:15:16;;;;;;;314.05;287.95;;;;;;;18.65;32.34;91507.66;5057598;28;20124;-68
2022/04/01 05:18:03;;;;;;;320.23;293.83;;;;;;;18.64;32.26;91503.50;5041902;28;20563;-68
2022/04/01 05:20:35;;;;;;;319.40;293.45;;;;;;;18.66;32.41;91502.97;5053071;28;20040;-68
2022/04/01 05:23:09;;;;;;;334.83;307.33;;;;;;;18.65;32.19;91504.97;5050860;28;20049;-68
2022/04/01 05:25:41;;;;;;;325.83;298.92;;;;;;;18.63;32.18;91502.03;5048901;28;20497;-68
2022/04/01 05:28:16;;;;;;;326.17;299.15;;;;;;;18.61;32.03;91503.81;5053719;28;20044;-68
2022/04/01 05:30:43;;;;;;;313.33;286.52;;;;;;;18.63;32.01;91504.03;5059818;28;20112;-69
2022/04/01 05:33:15;;;;;;;310.00;283.63;;;;;;;18.64;32.15;91514.34;5048910;28;20592;-68
2022/04/01 05:35:43;;;;;;;319.20;292.25;;;;;;;18.63;32.13;91517.56;5052182;28;20052;-67
2022/04/01 05:38:10;;;;;;;324.60;297.35;;;;;;;18.62;31.87;91519.53;5045511;28;20048;-68
2022/04/01 05:40:37;;;;;;;311.50;285.13;;;;;;;18.62;31.98;91522.25;5048786;28;20384;-69
2022/04/01 05:43:07;;;;;;;318.77;292.58;;;;;;;18.65;32.15;91523.19;5055281;28;20127;-68
2022/04/01 05:45:32;;;;;;;307.00;281.37;;;;;;;18.63;31.97;91522.97;5056683;28;20047;-70
2022/04/01 05:47:59;;;;;;;310.92;285.08;;;;;;;18.65;31.85;91526.63;5054832;28;20287;-69
2022/04/01 05:50:28;;;;;;;323.25;297.17;;;;;;;18.61;32.05;91534.31;5061260;28;20055;-67
2022/04/01 05:52:54;;;;;;;303.77;278.17;;;;;;;18.61;31.78;91528.16;5054674;28;20037;-68
2022/04/01 05:55:25;;;;;;;315.25;289.02;;;;;;;18.59;31.92;91527.94;5052177;28;20064;-67
2022/04/01 05:57:54;;;;;;;302.05;276.65;;;;;;;18.58;31.76;91531.88;5060955;28;20040;-67
2022/04/01 06:00:20;;;;;;;306.90;281.10;;;;;;;18.56;31.84;91531.66;5063613;28;20048;-66
2022/04/01 06:03:03;;;;;;;311.40;285.52;;;;;;;18.54;31.92;91543.00;5062476;28;20053;-66
2022/04/01 06:05:48;;;;;;;308.38;282.83;;;;;;;18.54;31.96;91539.56;5056885;28;20041;-64
2022/04/01 06:08:39;;;;;;;308.38;282.83;;;;;;;18.52;31.91;91542.78;5055915;28;20047;-67
2022/04/01 06:11:04;;;;;;;311.45;285.58;;;;;;;18.53;32.01;91540.81;5056087;28;20409;-70
2022/04/01 06:13:39;;;;;;;311.00;284.27;;;;;;;18.53;31.88;91557.06;5057229;28;20037;-70
2022/04/01 06:16:29;;;;;;;329.00;300.17;;;;;;;18.48;32.03;91552.47;5030734;28;20094;-68
2022/04/01 06:19:26;;;;;;;328.27;299.90;;;;;;;18.50;31.85;91552.69;5030528;28;20472;-68
2022/04/01 06:22:08;;;;;;;324.95;296.73;;;;;;;18.51;31.79;91554.13;5031966;28;20041;-66
2022/04/01 06:24:51;;;;;;;333.52;303.52;;;;;;;18.49;31.92;91551.94;5027557;28;20049;-69
2022/04/01 06:27:25;;;;;;;332.52;303.52;;;;;;;18.48;32.06;91550.47;5031213;28;20429;-68
2022/04/01 06:30:00;;;;;;;330.73;301.58;;;;;;;18.51;31.99;91554.13;5030428;28;20104;-67
2022/04/01 06:32:49;;;;;;;331.48;302.55;;;;;;;18.46;31.97;91552.25;5031091;28;20044;-68
2022/04/01 06:35:29;;;;;;;332.23;303.08;;;;;;;18.47;31.84;91551.72;5031101;28;20119;-68
2022/04/01 06:38:07;;;;;;;337.50;308.02;;;;;;;18.44;31.81;91556.19;5027838;28;20048;-68
2022/04/01 06:40:52;;;;;;;320.80;292.23;;;;;;;18.43;31.87;91552.03;5028351;28;20249;-67
2022/04/01 06:43:17;;;;;;;315.25;288.02;;;;;;;18.41;31.93;91549.09;5029450;28;20057;-68
2022/04/01 06:45:46;;;;;;;334.52;305.17;;;;;;;18.43;31.82;91554.00;5029975;28;20037;-68
2022/04/01 06:48:11;;;;;;;327.63;298.33;;;;;;;18.42;32.28;91555.97;5028837;28;20048;-68
2022/04/01 06:50:37;;;;;;;325.55;296.95;;;;;;;18.44;31.85;91552.75;5031326;28;20648;-68
2022/04/01 06:53:04;;;;;;;338.77;309.50;;;;;;;18.43;31.79;91559.41;5029523;28;20041;-68
2022/04/01 06:55:30;;;;;;;345.80;315.98;;;;;;;18.43;31.74;91559.41;5029772;28;20049;-67
2022/04/01 06:57:55;;;;;;;335.67;306.98;;;;;;;18.43;31.78;91559.41;5028394;28;20041;-68
2022/04/01 07:00:21;;;;;;;336.60;307.23;;;;;;;18.43;31.81;91562.13;5028288;28;20111;-68
2022/04/01 07:02:49;;;;;;;343.52;313.58;;;;;;;18.47;31.86;91567.97;5028781;28;20509;-68
2022/04/01 07:05:14;;;;;;;336.40;306.73;;;;;;;18.45;31.82;91562.34;5029016;28;20052;-67
2022/04/01 07:07:44;;;;;;;340.95;311.70;;;;;;;18.49;31.78;91557.34;5030094;28;20559;-67
2022/04/01 07:10:13;;;;;;;346.27;316.33;;;;;;;18.46;31.75;91554.94;5029389;28;20045;-67
2022/04/01 07:12:40;;;;;;;353.20;322.45;;;;;;;18.46;31.86;91554.94;5028594;28;20051;-67
2022/04/01 07:15:10;;;;;;;333.17;304.50;;;;;;;18.47;31.99;91562.56;5027769;28;20497;-68
2022/04/01 07:17:35;;;;;;;319.33;291.27;;;;;;;18.47;31.88;91567.25;5030665;28;20115;-68
2022/04/01 07:20:02;;;;;;;326.75;298.35;;;;;;;18.48;31.85;91563.28;5029608;28;20041;-67
2022/04/01 07:22:28;;;;;;;318.80;290.55;;;;;;;18.49;31.58;91567.44;5029749;28;20045;-66
2022/04/01 07:24:53;;;;;;;324.85;296.00;;;;;;;18.48;31.71;91564.00;5027787;28;20053;-67
2022/04/01 07:27:19;;;;;;;324.27;295.83;;;;;;;18.49;31.72;91562.03;5029223;28;20067;-67
2022/04/01 07:29:44;;;;;;;315.73;287.73;;;;;;;18.49;31.71;91576.31;5028626;28;20123;-68
2022/04/01 07:34:55;;;;;;;308.35;281.40;;;;;;;18.49;31.72;91580.97;5029492;28;20339;-67
2022/04/01 07:37:23;;;;;;;325.80;297.45;;;;;;;18.50;31.37;91583.19;5029880;28;20388;-68
2022/04/01 07:39:54;;;;;;;329.73;300.77;;;;;;;18.49;31.70;91576.31;5027455;28;20428;-68
2022/04/01 07:42:21;;;;;;;329.25;300.45;;;;;;;18.49;31.73;91584.44;5027786;28;20436;-71
2022/04/01 07:44:50;;;;;;;334.55;305.27;;;;;;;18.51;31.69;91594.72;5027008;28;20255;-68
2022/04/01 07:47:18;;;;;;;322.85;294.25;;;;;;;18.52;31.46;91583.41;5028416;28;20044;-68
2022/04/01 07:49:48;;;;;;;317.15;289.30;;;;;;;18.52;31.73;91588.06;5026164;28;20472;-68
2022/04/01 07:52:14;;;;;;;330.13;301.38;;;;;;;18.52;31.66;91588.81;5028173;28;20048;-68
2022/04/01 07:54:42;;;;;;;344.70;314.23;;;;;;;18.49;31.41;91586.41;5028972;28;20072;-67
2022/04/01 07:57:11;;;;;;;336.58;306.85;;;;;;;18.49;31.63;91589.09;5027592;28;20098;-67
2022/04/01 07:59:37;;;;;;;323.80;295.40;;;;;;;18.51;31.37;91592.03;5027541;28;20045;-68
2022/04/01 08:02:06;;;;;;;332.02;303.00;;;;;;;18.49;31.84;91583.69;5029735;28;20194;-68
2022/04/01 08:04:32;;;;;;;331.07;302.03;;;;;;;18.48;31.73;91587.66;5028887;28;20048;-66
2022/04/01 08:06:58;;;;;;;310.85;283.50;;;;;;;18.47;31.69;91589.63;5029989;28;21513;-73
2022/04/01 08:09:24;;;;;;;333.00;303.20;;;;;;;18.43;31.68;91591.88;5030075;28;20071;-67
2022/04/01 08:11:54;;;;;;;311.52;284.58;;;;;;;18.41;31.74;91588.97;5029504;28;21749;-68
2022/04/01 08:14:20;;;;;;;326.20;297.75;;;;;;;18.44;31.67;91594.09;5029030;28;20048;-68
2022/04/01 08:16:47;;;;;;;315.65;287.88;;;;;;;18.46;31.47;91606.38;5030205;28;20048;-68
2022/04/01 08:19:12;;;;;;;310.95;282.80;;;;;;;18.45;31.75;91600.22;5027397;28;20048;-67
2022/04/01 08:21:39;;;;;;;318.67;290.75;;;;;;;18.45;31.37;91602.94;5026429;28;20251;-68
2022/04/01 08:24:05;;;;;;;325.15;296.35;;;;;;;18.46;31.68;91596.28;5027571;28;20121;-67
2022/04/01 08:26:30;;;;;;;314.33;287.30;;;;;;;18.46;31.52;91611.78;5031424;28;20056;-68
2022/04/01 08:28:56;;;;;;;315.98;287.95;;;;;;;18.44;31.62;91602.19;5031468;28;20048;-67
2022/04/01 08:31:23;;;;;;;317.80;289.88;;;;;;;18.46;31.47;91603.66;5032669;28;20091;-67
2022/04/01 08:33:50;;;;;;;319.27;291.67;;;;;;;18.47;31.39;91607.84;5032569;28;20059;-67
2022/04/01 08:36:17;;;;;;;312.17;284.92;;;;;;;18.48;31.55;91606.59;5033873;28;20037;-67
2022/04/01 08:38:43;;;;;;;319.52;291.40;;;;;;;18.49;31.67;91605.34;5035086;28;20049;-66
2022/04/01 08:41:10;;;;;;;298.50;272.58;;;;;;;18.53;31.65;91605.78;5033890;28;20091;-67
2022/04/01 08:43:39;;;;;;;320.00;291.92;;;;;;;18.51;31.67;91602.84;5030747;28;20048;-68
2022/04/01 08:46:08;;;;;;;310.85;283.38;;;;;;;18.53;31.60;91611.19;5028722;28;20052;-68
2022/04/01 08:48:35;;;;;;;326.02;297.98;;;;;;;18.53;31.44;91616.59;5032292;28;20052;-67
2022/04/01 08:51:02;;;;;;;322.90;294.75;;;;;;;18.54;31.59;91618.06;5036098;28;20060;-67
2022/04/01 08:53:28;;;;;;;322.75;294.13;;;;;;;18.56;31.56;91612.88;5035471;28;20048;-67
2022/04/01 08:55:56;;;;;;;325.17;297.33;;;;;;;18.54;31.63;91612.66;5030649;28;20043;-67
2022/04/01 08:58:23;;;;;;;327.77;298.85;;;;;;;18.54;31.40;91623.47;5047816;28;20053;-67
2022/04/01 09:00:51;;;;;;;324.58;296.40;;;;;;;18.55;31.44;91620.25;5032849;28;20954;-68
2022/04/01 09:03:19;;;;;;;321.58;293.98;;;;;;;18.55;31.67;91620.25;5031174;28;20057;-68
2022/04/01 09:05:50;;;;;;;330.20;301.67;;;;;;;18.56;31.81;91623.69;5031984;28;20060;-67
2022/04/01 09:08:22;;;;;;;322.05;293.90;;;;;;;18.60;31.70;91626.84;5031329;28;20049;-67
2022/04/01 09:11:03;;;;;;;315.27;288.08;;;;;;;18.61;31.63;91633.75;5028905;28;20114;-67
2022/04/01 09:13:38;;;;;;;331.08;302.17;;;;;;;18.60;31.40;91633.00;5030401;28;20059;-67
2022/04/01 09:16:04;;;;;;;320.55;292.63;;;;;;;18.60;31.49;91629.53;5029599;28;20045;-66
2022/04/01 09:18:41;;;;;;;327.05;298.13;;;;;;;18.60;31.59;91626.84;5029800;28;20053;-68
2022/04/01 09:21:11;;;;;;;322.40;294.02;;;;;;;18.59;31.43;91633.50;5029545;28;20429;-68
2022/04/01 09:23:38;;;;;;;327.23;298.10;;;;;;;18.59;31.47;91625.38;5031053;28;20052;-68
2022/04/01 09:26:05;;;;;;;311.42;284.50;;;;;;;18.57;31.52;91625.16;5030399;28;20201;-67
2022/04/01 09:28:34;;;;;;;326.67;298.05;;;;;;;18.55;31.59;91631.09;5031987;28;20037;-67
2022/04/01 09:31:12;;;;;;;322.17;294.52;;;;;;;18.56;31.29;91635.25;5047403;28;20060;-68
2022/04/01 09:33:43;;;;;;;322.60;294.23;;;;;;;18.59;31.34;91630.78;5034508;28;20143;-67
2022/04/01 09:36:15;;;;;;;320.63;293.15;;;;;;;18.58;31.57;91627.34;5034304;28;20045;-67
2022/04/01 09:39:16;;;;;;;311.77;285.70;;;;;;;18.60;31.42;91640.38;5034318;28;21996;-68
2022/04/01 09:41:49;;;;;;;320.30;291.88;;;;;;;18.59;31.37;91639.63;5038459;28;20069;-68
2022/04/01 09:44:28;;;;;;;337.55;307.90;;;;;;;18.57;31.48;91641.41;5031811;28;20049;-69
2022/04/01 09:47:00;;;;;;;329.85;301.17;;;;;;;18.56;31.18;91642.66;5032372;28;20095;-68
2022/04/01 09:49:39;;;;;;;316.13;288.02;;;;;;;18.58;31.37;91640.16;5033084;28;20094;-68
2022/04/01 09:52:07;;;;;;;;;;;;;;;18.57;31.39;91642.13;5034207;28;20045;-72
2022/04/01 09:54:33;;;;;;;314.45;286.67;;;;;;;18.59;31.28;91638.91;5034953;28;19963;-68
2022/04/01 09:56:59;;;;;;;323.85;294.88;;;;;;;18.56;31.35;91640.66;5032272;28;20454;-66
2022/04/01 09:59:25;;;;;;;323.45;295.00;;;;;;;18.57;31.32;91647.53;5034741;28;20051;-68
2022/04/01 10:01:51;;;;;;;325.85;297.58;;;;;;;18.59;31.68;91641.63;5051277;28;20052;-68
2022/04/01 10:04:17;;;;;;;338.05;308.40;;;;;;;18.59;31.47;91645.06;5033818;28;20105;-67
2022/04/01 10:06:42;;;;;;;331.17;302.70;;;;;;;18.56;31.48;91639.94;5032365;28;20053;-68
2022/04/01 10:09:10;;;;;;;351.35;320.20;;;;;;;18.54;31.51;91651.28;5029242;28;20049;-68
2022/04/01 10:11:38;;;;;;;328.98;299.98;;;;;;;18.52;31.35;91659.19;5023807;28;20056;-68
2022/04/01 10:14:31;;;;;;;336.73;307.02;;;;;;;18.53;31.37;91659.91;5026334;28;20056;-67
2022/04/01 10:17:00;;;;;;;333.13;304.58;;;;;;;18.54;31.62;91656.69;5022420;28;20088;-68
2022/04/01 10:19:32;;;;;;;334.00;304.55;;;;;;;18.56;31.46;91648.06;5031233;28;20143;-68
2022/04/01 10:21:58;;;;;;;311.60;284.63;;;;;;;18.56;31.50;91658.88;5049795;28;20052;-67
2022/04/01 10:24:34;;;;;;;326.80;298.00;;;;;;;18.55;31.42;91658.16;5030751;28;20044;-68
2022/04/01 10:27:03;;;;;;;312.92;286.38;;;;;;;18.51;31.45;91652.31;5034946;28;20044;-68
2022/04/01 10:29:31;;;;;;;323.65;295.25;;;;;;;18.45;31.62;91651.66;5035946;28;20056;-68
2022/04/01 10:32:19;;;;;;;326.13;298.13;;;;;;;18.44;31.41;91656.31;5031937;28;21168;-68
2022/04/01 10:34:47;;;;;;;329.17;299.95;;;;;;;18.46;31.35;91660.50;5035149;28;20049;-68
2022/04/01 10:37:14;;;;;;;333.73;304.50;;;;;;;18.47;31.43;91656.53;5032435;28;20079;-69
2022/04/01 10:39:48;;;;;;;320.75;292.08;;;;;;;18.50;31.47;91663.63;5033836;28;20468;-68
2022/04/01 10:42:16;;;;;;;322.15;293.45;;;;;;;18.49;31.33;91662.19;5028224;28;20128;-67
2022/04/01 10:44:50;;;;;;;341.40;311.50;;;;;;;18.50;31.38;91669.06;5030001;28;20055;-67
2022/04/01 10:47:16;;;;;;;329.75;300.60;;;;;;;18.49;31.39;91660.19;5031359;28;20456;-67
2022/04/01 10:52:27;;;;;;;322.70;293.33;;;;;;;18.46;31.35;91663.19;5033415;28;20135;-67
2022/04/01 10:55:08;;;;;;;321.88;293.05;;;;;;;18.40;31.33;91664.00;5033109;28;20168;-68
2022/04/01 10:57:47;;;;;;;332.40;303.23;;;;;;;18.35;31.40;91656.69;5026654;28;20041;-68
2022/04/01 11:00:17;;;;;;;341.20;311.45;;;;;;;18.36;31.50;91660.88;5031344;28;20142;-67
2022/04/01 11:02:45;;;;;;;315.30;287.55;;;;;;;18.40;31.49;91664.00;5030989;28;20044;-67
2022/04/01 11:05:25;;;;;;;330.08;300.40;;;;;;;18.43;31.43;91673.06;5023117;28;20081;-67
2022/04/01 11:08:17;;;;;;;328.23;298.48;;;;;;;18.45;31.33;91673.28;5026239;28;20040;-69
2022/04/01 11:11:08;;;;;;;334.83;305.75;;;;;;;18.45;31.30;91676.00;5033911;28;20113;-68
2022/04/01 11:13:36;;;;;;;327.45;298.52;;;;;;;18.46;31.26;91671.31;5036815;28;20106;-68
2022/04/01 11:16:12;;;;;;;338.08;308.05;;;;;;;18.44;31.27;91675.28;5028610;28;20049;-68
2022/04/01 11:19:17;;;;;;;332.35;303.85;;;;;;;18.49;31.45;91675.72;5033131;28;20383;-69
2022/04/01 11:21:47;;;;;;;319.65;291.13;;;;;;;18.45;31.46;91667.88;5032328;28;20059;-66
2022/04/01 11:24:51;;;;;;;335.17;304.67;;;;;;;18.46;31.43;91676.75;5028530;28;20122;-68
2022/04/01 11:27:25;;;;;;;328.88;300.38;;;;;;;18.46;31.22;91680.16;4965211;28;20112;-67